Time;durP1;ratioP1;P1;durP2;ratioP2;P2;SDS_P1;SDS_P2;PMS_P1;PMS_P2;Temp;Humidity;BMP_temperature;BMP_pressure;BME280_temperature;BME280_humidity;BME280_pressure;Samples;Min_cycle;Max_cycle;Signal;HPM_P1;HPM_P2
2023/03/12 00:01:40;;;;;;;11.27;7.63;;;25.70;99.90;;;;;;5069808;28;20416;-67
2023/03/12 00:04:06;;;;;;;10.07;6.85;;;25.60;99.90;;;;;;5069720;28;20397;-67
2023/03/12 00:06:33;;;;;;;10.25;6.38;;;25.70;99.90;;;;;;5069810;28;20036;-66
2023/03/12 00:09:00;;;;;;;10.00;6.07;;;25.60;99.90;;;;;;5069580;28;20104;-67
2023/03/12 00:11:28;;;;;;;18.35;7.80;;;25.60;99.90;;;;;;5069700;28;20025;-68
2023/03/12 00:13:56;;;;;;;11.10;8.25;;;25.60;99.90;;;;;;5069293;28;20049;-69
2023/03/12 00:16:23;;;;;;;18.02;10.60;;;25.70;99.90;;;;;;5069290;28;20025;-69
2023/03/12 00:18:52;;;;;;;26.10;18.88;;;25.70;99.90;;;;;;5069386;28;20024;-69
2023/03/12 00:21:20;;;;;;;17.10;13.70;;;25.60;99.90;;;;;;5069473;28;20028;-69
2023/03/12 00:23:48;;;;;;;15.93;11.63;;;25.60;99.90;;;;;;5069056;28;20029;-69
2023/03/12 00:26:15;;;;;;;20.15;13.93;;;25.60;99.90;;;;;;5056794;28;20037;-69
2023/03/12 00:28:42;;;;;;;22.52;15.65;;;25.70;99.90;;;;;;5056010;28;20151;-69
2023/03/12 00:31:18;;;;;;;24.05;16.90;;;25.70;99.90;;;;;;5055971;28;20170;-69
2023/03/12 00:33:44;;;;;;;30.23;20.67;;;25.60;99.90;;;;;;5055825;28;20029;-69
2023/03/12 00:36:12;;;;;;;28.95;21.27;;;25.60;99.90;;;;;;5055754;28;20104;-67
2023/03/12 00:38:38;;;;;;;33.17;28.20;;;25.70;99.90;;;;;;5055811;28;20458;-67
2023/03/12 00:41:05;;;;;;;36.53;32.70;;;25.60;99.90;;;;;;5055754;28;20025;-68
2023/03/12 00:43:31;;;;;;;38.95;34.75;;;25.50;99.90;;;;;;5055622;28;20021;-67
2023/03/12 00:45:58;;;;;;;41.65;36.65;;;25.60;99.90;;;;;;5055667;28;20028;-68
2023/03/12 00:48:24;;;;;;;43.47;38.72;;;25.60;99.90;;;;;;5055784;28;20036;-69
2023/03/12 00:50:51;;;;;;;43.72;39.22;;;25.70;99.90;;;;;;5055552;28;20032;-66
2023/03/12 00:53:17;;;;;;;43.55;38.90;;;25.70;99.90;;;;;;5055811;28;20056;-68
2023/03/12 00:55:44;;;;;;;48.17;42.78;;;25.70;99.90;;;;;;5055527;28;20028;-69
2023/03/12 00:58:10;;;;;;;46.78;41.35;;;25.70;99.90;;;;;;5055540;28;20029;-69
2023/03/12 01:00:37;;;;;;;47.50;42.60;;;25.70;99.90;;;;;;5055256;28;20500;-68
2023/03/12 01:03:03;;;;;;;45.08;39.95;;;25.80;99.90;;;;;;5055321;28;20032;-69
2023/03/12 01:05:30;;;;;;;343.55;253.95;;;25.70;99.90;;;;;;5055329;28;20028;-69
2023/03/12 01:07:57;;;;;;;125.30;98.78;;;25.70;99.90;;;;;;5055706;28;20056;-67
2023/03/12 01:10:23;;;;;;;50.80;42.30;;;25.80;99.90;;;;;;5055508;28;20439;-69
2023/03/12 01:12:50;;;;;;;44.00;38.45;;;25.80;99.90;;;;;;5055077;28;20035;-69
2023/03/12 01:15:18;;;;;;;42.47;37.97;;;25.70;99.90;;;;;;5055193;28;20021;-69
2023/03/12 01:17:50;;;;;;;49.83;42.55;;;25.60;99.90;;;;;;5055530;28;20017;-67
2023/03/12 01:20:17;;;;;;;48.35;40.08;;;25.60;99.90;;;;;;5055803;28;20424;-67
2023/03/12 01:22:44;;;;;;;39.75;33.13;;;25.60;99.90;;;;;;5055440;28;20053;-68
2023/03/12 01:25:11;;;;;;;42.42;35.22;;;25.50;99.90;;;;;;5055003;28;20036;-69
2023/03/12 01:27:37;;;;;;;37.70;31.42;;;25.60;99.90;;;;;;5055246;28;20021;-68
2023/03/12 01:30:04;;;;;;;43.15;35.30;;;25.60;99.90;;;;;;5054845;28;20075;-68
2023/03/12 01:32:31;;;;;;;46.83;38.13;;;25.70;99.90;;;;;;5055337;28;20340;-68
2023/03/12 01:34:59;;;;;;;46.95;35.63;;;25.70;99.90;;;;;;5054929;28;20028;-68
2023/03/12 01:37:26;;;;;;;37.75;32.22;;;25.70;99.90;;;;;;5053731;28;20029;-69
2023/03/12 01:39:53;;;;;;;34.45;30.48;;;25.70;99.90;;;;;;5055023;28;20488;-68
2023/03/12 01:42:19;;;;;;;37.80;30.42;;;25.70;99.90;;;;;;5054994;28;20462;-68
2023/03/12 01:45:01;;;;;;;37.40;30.83;;;25.80;99.90;;;;;;5054832;28;20096;-69
2023/03/12 01:47:32;;;;;;;31.90;27.75;;;25.70;99.90;;;;;;5048421;28;20525;-69
2023/03/12 01:49:59;;;;;;;35.35;28.60;;;25.80;99.90;;;;;;5041297;28;20053;-69
2023/03/12 01:52:34;;;;;;;36.75;28.77;;;25.80;99.90;;;;;;5034852;28;20420;-69
2023/03/12 01:55:15;;;;;;;33.03;25.63;;;25.80;99.90;;;;;;5034704;28;20031;-70
2023/03/12 01:57:54;;;;;;;31.77;24.08;;;25.80;99.90;;;;;;5034659;28;20022;-69
2023/03/12 02:00:24;;;;;;;30.60;24.02;;;25.70;99.90;;;;;;5034565;28;20355;-65
2023/03/12 02:02:53;;;;;;;28.88;23.67;;;25.80;99.90;;;;;;5034832;28;20057;-69
2023/03/12 02:05:50;;;;;;;27.88;23.38;;;25.80;99.90;;;;;;5034424;28;20048;-70
2023/03/12 02:08:17;;;;;;;26.48;21.77;;;25.90;99.90;;;;;;5033241;28;20068;-70
2023/03/12 02:10:44;;;;;;;39.67;31.92;;;25.90;99.90;;;;;;5034256;28;20070;-70
2023/03/12 02:13:12;;;;;;;45.55;34.40;;;25.90;99.90;;;;;;5034222;28;20538;-70
2023/03/12 02:15:38;;;;;;;41.78;28.65;;;26.00;99.90;;;;;;5034971;28;20429;-72
2023/03/12 02:18:08;;;;;;;30.63;22.77;;;26.00;99.90;;;;;;5034793;28;20025;-69
2023/03/12 02:20:47;;;;;;;30.95;24.65;;;25.90;99.90;;;;;;5034136;28;20078;-70
2023/03/12 02:23:32;;;;;;;46.17;37.33;;;26.00;99.90;;;;;;5034025;28;20151;-71
2023/03/12 02:26:01;;;;;;;96.15;77.57;;;26.10;99.90;;;;;;5034158;28;20028;-68
2023/03/12 02:28:29;;;;;;;71.32;60.05;;;26.10;99.90;;;;;;5034290;28;20025;-69
2023/03/12 02:31:02;;;;;;;70.22;61.38;;;26.10;99.90;;;;;;5034487;28;20029;-67
2023/03/12 02:33:29;;;;;;;110.85;89.55;;;26.20;99.90;;;;;;5033839;28;20108;-70
2023/03/12 02:35:55;;;;;;;92.60;71.75;;;26.20;99.90;;;;;;5034421;28;20054;-69
2023/03/12 02:38:42;;;;;;;76.13;59.33;;;26.10;99.90;;;;;;5034444;28;20467;-70
2023/03/12 02:41:19;;;;;;;58.33;44.42;;;26.10;99.90;;;;;;5034613;28;20386;-70
2023/03/12 02:43:52;;;;;;;42.28;34.83;;;26.10;99.90;;;;;;5034305;28;20394;-70
2023/03/12 02:46:19;;;;;;;41.55;34.55;;;26.10;99.90;;;;;;5034231;28;20022;-70
2023/03/12 02:48:46;;;;;;;40.05;34.67;;;26.10;99.90;;;;;;5042534;28;20544;-69
2023/03/12 02:51:12;;;;;;;35.67;31.17;;;26.10;99.90;;;;;;5054354;28;20494;-70
2023/03/12 02:53:39;;;;;;;43.78;34.33;;;26.20;99.90;;;;;;5053961;28;20025;-70
2023/03/12 02:56:06;;;;;;;41.85;32.15;;;26.20;99.90;;;;;;5053564;28;20551;-70
2023/03/12 02:58:33;;;;;;;34.25;30.48;;;26.30;99.90;;;;;;5053909;28;20154;-70
2023/03/12 03:01:00;;;;;;;38.53;30.75;;;26.30;99.90;;;;;;5054246;28;20017;-70
2023/03/12 03:03:26;;;;;;;66.53;54.45;;;26.30;99.90;;;;;;5053903;28;20021;-69
2023/03/12 03:05:53;;;;;;;41.35;34.95;;;26.40;99.90;;;;;;5053650;28;20037;-69
2023/03/12 03:08:19;;;;;;;37.65;33.58;;;26.40;99.90;;;;;;5053808;28;20036;-70
2023/03/12 03:10:46;;;;;;;35.70;29.63;;;26.40;99.90;;;;;;5053795;28;20032;-70
2023/03/12 03:13:12;;;;;;;42.45;33.75;;;26.40;99.90;;;;;;5053082;28;20049;-69
2023/03/12 03:15:39;;;;;;;33.25;29.27;;;26.40;99.90;;;;;;5053879;28;20049;-69
2023/03/12 03:18:06;;;;;;;32.47;27.67;;;26.40;99.90;;;;;;5046687;28;20029;-67
2023/03/12 03:20:32;;;;;;;28.50;24.65;;;26.40;99.90;;;;;;5033818;28;20017;-68
2023/03/12 03:22:59;;;;;;;26.05;23.25;;;26.40;99.90;;;;;;5034073;28;20486;-68
2023/03/12 03:25:26;;;;;;;27.08;23.48;;;26.40;99.90;;;;;;5041039;28;20186;-68
2023/03/12 03:27:52;;;;;;;25.30;21.63;;;26.50;99.90;;;;;;5053484;28;20021;-68
2023/03/12 03:30:20;;;;;;;27.40;20.73;;;26.50;99.90;;;;;;5053466;28;20181;-67
2023/03/12 03:32:48;;;;;;;20.35;17.52;;;26.60;99.90;;;;;;5053494;28;20095;-69
2023/03/12 03:35:15;;;;;;;18.75;16.52;;;26.60;99.90;;;;;;5053562;28;20037;-68
2023/03/12 03:37:42;;;;;;;16.23;14.32;;;26.70;99.90;;;;;;5053609;28;20465;-69
2023/03/12 03:40:11;;;;;;;13.65;11.43;;;26.70;99.90;;;;;;5053566;28;20028;-69
2023/03/12 03:42:38;;;;;;;13.50;12.10;;;26.60;99.90;;;;;;5053457;28;20029;-69
2023/03/12 03:45:06;;;;;;;16.40;12.68;;;26.60;99.90;;;;;;5053210;28;20155;-68
2023/03/12 03:47:32;;;;;;;10.32;8.63;;;26.70;99.90;;;;;;5053588;28;20025;-69
2023/03/12 03:49:59;;;;;;;10.68;8.02;;;26.80;99.90;;;;;;5046673;28;20035;-69
2023/03/12 03:52:25;;;;;;;10.93;8.10;;;26.80;99.90;;;;;;5061555;28;20365;-67
2023/03/12 03:54:52;;;;;;;39.03;32.33;;;26.90;99.90;;;;;;5063075;28;20028;-68
2023/03/12 03:57:19;;;;;;;32.17;22.40;;;26.90;99.90;;;;;;5062482;28;20021;-68
2023/03/12 03:59:45;;;;;;;57.05;41.15;;;27.00;99.90;;;;;;5061729;28;20108;-68
2023/03/12 04:02:12;;;;;;;35.95;26.95;;;27.00;99.90;;;;;;5066565;28;20459;-69
2023/03/12 04:04:38;;;;;;;12.48;8.88;;;27.00;99.90;;;;;;5048929;23;20049;-69
2023/03/12 04:07:05;;;;;;;13.02;8.52;;;27.10;99.90;;;;;;5025194;28;20026;-67
2023/03/12 04:09:32;;;;;;;16.48;9.27;;;27.10;99.90;;;;;;5026260;28;20017;-70
2023/03/12 04:11:58;;;;;;;12.68;6.15;;;27.20;99.90;;;;;;5026098;28;20026;-69
2023/03/12 04:14:25;;;;;;;7.57;5.75;;;27.20;99.90;;;;;;5024713;28;20030;-68
2023/03/12 04:16:51;;;;;;;5.72;5.05;;;27.20;99.90;;;;;;5025088;28;20046;-69
2023/03/12 04:19:18;;;;;;;6.57;4.70;;;27.20;99.90;;;;;;5026251;28;20262;-69
2023/03/12 04:21:45;;;;;;;7.35;5.82;;;27.30;99.90;;;;;;5029876;28;20013;-68
2023/03/12 04:24:16;;;;;;;7.93;6.32;;;27.30;99.90;;;;;;5026541;28;20022;-69
2023/03/12 04:26:42;;;;;;;9.63;6.88;;;27.40;99.90;;;;;;5026514;28;20026;-68
2023/03/12 04:29:09;;;;;;;7.93;6.38;;;27.50;99.90;;;;;;5024611;28;20104;-68
2023/03/12 04:31:36;;;;;;;7.50;6.20;;;27.50;99.90;;;;;;5025843;28;20026;-69
2023/03/12 04:34:02;;;;;;;11.18;6.88;;;27.50;99.90;;;;;;5022254;28;20512;-70
2023/03/12 04:36:29;;;;;;;6.00;4.88;;;27.50;99.90;;;;;;5026870;28;20072;-71
2023/03/12 04:38:56;;;;;;;12.98;4.40;;;27.60;99.90;;;;;;5025405;28;20104;-69
2023/03/12 04:41:23;;;;;;;7.63;4.80;;;27.70;99.90;;;;;;5026133;28;20052;-66
2023/03/12 04:43:49;;;;;;;12.05;9.73;;;27.70;99.90;;;;;;5024631;28;20038;-69
2023/03/12 04:46:16;;;;;;;16.40;10.82;;;27.70;99.90;;;;;;5025827;28;20512;-68
2023/03/12 04:48:42;;;;;;;18.35;11.93;;;27.80;99.90;;;;;;5026236;28;20034;-68
2023/03/12 04:51:09;;;;;;;14.77;9.05;;;27.80;99.90;;;;;;5024871;28;20022;-70
2023/03/12 04:53:36;;;;;;;26.58;20.30;;;27.90;99.90;;;;;;5025042;28;20022;-68
2023/03/12 04:56:02;;;;;;;14.07;10.55;;;28.00;99.90;;;;;;5026166;28;20237;-68
2023/03/12 04:58:29;;;;;;;8.50;6.68;;;28.10;99.90;;;;;;5024240;28;20546;-68
2023/03/12 05:00:56;;;;;;;23.40;15.23;;;28.30;99.90;;;;;;5025466;28;20033;-68
2023/03/12 05:03:23;;;;;;;5.88;4.57;;;28.30;99.90;;;;;;5025757;28;20042;-70
2023/03/12 05:05:49;;;;;;;5.57;3.22;;;28.30;99.90;;;;;;5024046;28;20076;-66
2023/03/12 05:08:16;;;;;;;5.43;3.42;;;28.30;99.90;;;;;;5024534;28;20390;-68
2023/03/12 05:10:45;;;;;;;13.15;8.43;;;28.40;99.90;;;;;;5022660;28;20029;-68
2023/03/12 05:13:16;;;;;;;10.52;5.38;;;28.40;99.90;;;;;;5020051;28;20030;-69
2023/03/12 05:15:44;;;;;;;40.35;29.98;;;28.60;99.90;;;;;;5016810;28;20539;-69
2023/03/12 05:18:10;;;;;;;5.50;4.95;;;28.70;99.90;;;;;;5027917;28;20030;-68
2023/03/12 05:20:37;;;;;;;5.00;4.07;;;28.60;99.90;;;;;;5021096;28;20135;-69
2023/03/12 05:23:04;;;;;;;14.30;12.07;;;28.60;99.90;;;;;;5023165;28;20033;-66
2023/03/12 05:25:30;;;;;;;8.98;4.53;;;28.50;99.90;;;;;;5029327;28;20060;-65
2023/03/12 05:27:57;;;;;;;4.32;3.55;;;28.60;99.90;;;;;;5018982;28;20470;-67
2023/03/12 05:30:23;;;;;;;26.23;19.38;;;28.50;99.90;;;;;;5024603;28;20029;-70
2023/03/12 05:32:50;;;;;;;11.43;8.88;;;28.60;99.90;;;;;;5024725;28;20029;-68
2023/03/12 05:35:16;;;;;;;5.07;4.20;;;28.60;99.90;;;;;;5024493;28;20033;-68
2023/03/12 05:37:43;;;;;;;27.70;20.85;;;28.70;99.90;;;;;;5022344;28;20141;-67
2023/03/12 05:40:11;;;;;;;8.57;6.95;;;28.80;99.90;;;;;;5019777;28;20014;-66
2023/03/12 05:42:38;;;;;;;8.68;6.70;;;28.80;99.90;;;;;;5018429;28;20029;-68
2023/03/12 05:45:05;;;;;;;7.53;5.93;;;28.90;99.90;;;;;;5022343;28;20033;-67
2023/03/12 05:47:32;;;;;;;4.90;4.40;;;28.90;99.90;;;;;;5022324;28;20027;-70
2023/03/12 05:49:58;;;;;;;5.63;5.10;;;28.90;99.90;;;;;;5019222;28;20022;-69
2023/03/12 05:52:25;;;;;;;11.95;9.52;;;29.00;99.90;;;;;;5018718;28;20030;-67
2023/03/12 05:54:52;;;;;;;23.00;20.33;;;29.00;99.90;;;;;;5015630;28;20057;-70
2023/03/12 05:57:19;;;;;;;24.48;19.38;;;29.00;99.90;;;;;;5015421;28;20422;-68
2023/03/12 05:59:45;;;;;;;12.70;8.82;;;29.00;99.90;;;;;;5007513;28;20061;-67
2023/03/12 06:02:12;;;;;;;7.47;4.72;;;29.10;99.90;;;;;;4997265;28;20456;-72
2023/03/12 06:04:38;;;;;;;7.25;5.28;;;29.00;99.90;;;;;;5025546;28;20467;-70
2023/03/12 06:07:05;;;;;;;6.85;5.43;;;29.10;99.90;;;;;;5025208;28;20025;-69
2023/03/12 06:09:31;;;;;;;5.28;4.53;;;29.20;99.90;;;;;;5023858;28;20102;-68
2023/03/12 06:11:58;;;;;;;9.15;7.50;;;29.20;99.90;;;;;;5019830;28;20026;-68
2023/03/12 06:14:24;;;;;;;5.35;4.25;;;29.30;99.90;;;;;;5021638;28;20017;-71
2023/03/12 06:16:51;;;;;;;4.68;4.20;;;29.40;99.90;;;;;;5014788;28;20033;-68
2023/03/12 06:19:17;;;;;;;8.18;4.65;;;29.40;99.90;;;;;;5014447;28;20021;-70
2023/03/12 06:21:44;;;;;;;3.72;3.40;;;29.50;99.90;;;;;;5013955;28;20486;-68
2023/03/12 06:24:10;;;;;;;7.57;6.10;;;29.50;99.90;;;;;;5013600;28;20113;-70
2023/03/12 06:26:37;;;;;;;4.07;3.67;;;29.50;99.90;;;;;;5012873;28;20026;-72
2023/03/12 06:29:04;;;;;;;4.47;3.83;;;29.70;99.90;;;;;;5003637;28;20045;-69
2023/03/12 06:31:30;;;;;;;6.25;4.63;;;29.80;99.90;;;;;;4994788;28;20061;-69
2023/03/12 06:33:57;;;;;;;26.25;22.38;;;29.90;99.90;;;;;;4994980;28;20030;-69
2023/03/12 06:36:24;;;;;;;8.60;6.72;;;30.00;99.90;;;;;;5010941;28;20542;-69
2023/03/12 06:38:50;;;;;;;8.98;5.80;;;30.00;99.90;;;;;;5013870;28;20484;-70
2023/03/12 06:41:18;;;;;;;7.00;5.43;;;30.10;99.90;;;;;;5013727;28;20491;-70
2023/03/12 06:43:46;;;;;;;5.65;5.07;;;30.20;99.90;;;;;;5013493;28;20037;-70
2023/03/12 06:46:15;;;;;;;6.90;5.32;;;30.20;99.90;;;;;;5013493;28;20034;-69
2023/03/12 06:48:44;;;;;;;8.07;5.30;;;30.20;99.90;;;;;;5013613;28;20049;-68
2023/03/12 06:51:13;;;;;;;5.13;4.57;;;30.30;99.90;;;;;;5013745;28;20022;-70
2023/03/12 06:53:40;;;;;;;6.53;4.50;;;30.20;99.90;;;;;;5013844;28;20026;-69
2023/03/12 06:56:07;;;;;;;6.15;5.03;;;30.20;99.90;;;;;;5013430;28;20018;-66
2023/03/12 06:58:33;;;;;;;6.28;4.93;;;30.30;99.90;;;;;;5013733;28;20030;-70
2023/03/12 07:01:00;;;;;;;7.07;4.88;;;30.20;99.90;;;;;;5013803;28;20113;-68
2023/03/12 07:03:26;;;;;;;8.23;4.88;;;30.20;99.90;;;;;;5013359;28;20049;-68
2023/03/12 07:05:55;;;;;;;4.93;4.18;;;30.20;99.90;;;;;;5013625;28;20045;-69
2023/03/12 07:08:22;;;;;;;4.18;3.78;;;30.30;99.90;;;;;;5013477;28;20057;-70
2023/03/12 07:10:49;;;;;;;5.40;4.35;;;30.30;99.90;;;;;;5012488;28;20018;-68
2023/03/12 07:13:15;;;;;;;5.03;4.47;;;30.40;99.90;;;;;;5011202;28;20030;-68
2023/03/12 07:15:43;;;;;;;4.65;4.22;;;30.50;99.90;;;;;;5019910;28;20022;-68
2023/03/12 07:18:11;;;;;;;10.90;5.88;;;30.40;99.90;;;;;;5018942;28;20029;-67
2023/03/12 07:20:40;;;;;;;6.65;5.70;;;30.40;99.90;;;;;;5017123;28;20422;-68
2023/03/12 07:23:07;;;;;;;17.17;14.15;;;30.50;99.90;;;;;;5019491;28;20105;-67
2023/03/12 07:25:38;;;;;;;10.00;8.60;;;30.50;99.90;;;;;;5020998;28;20021;-67
2023/03/12 07:28:05;;;;;;;14.80;12.80;;;30.60;99.90;;;;;;5022082;28;20014;-68
2023/03/12 07:30:33;;;;;;;6.15;5.45;;;30.60;99.90;;;;;;5020648;28;20014;-68
2023/03/12 07:33:01;;;;;;;6.40;5.40;;;30.70;99.90;;;;;;5021949;28;20029;-68
2023/03/12 07:35:28;;;;;;;7.88;4.57;;;30.70;99.90;;;;;;5024073;28;20018;-69
2023/03/12 07:37:55;;;;;;;11.23;4.78;;;30.80;99.90;;;;;;5024860;28;20041;-69
2023/03/12 07:40:21;;;;;;;7.93;4.65;;;30.90;99.90;;;;;;5018698;28;20022;-68
2023/03/12 07:42:50;;;;;;;5.97;5.20;;;31.00;99.90;;;;;;5016911;28;20034;-68
2023/03/12 07:45:17;;;;;;;5.22;4.53;;;31.00;99.90;;;;;;5017121;28;20029;-70
2023/03/12 07:47:44;;;;;;;4.57;4.18;;;31.00;99.90;;;;;;5016763;28;20483;-64
2023/03/12 07:50:11;;;;;;;9.73;5.22;;;31.10;99.90;;;;;;5016808;28;20029;-63
2023/03/12 07:52:38;;;;;;;35.72;29.55;;;31.20;99.90;;;;;;5012649;28;20026;-64
2023/03/12 07:55:05;;;;;;;21.65;18.35;;;31.20;99.90;;;;;;5020608;28;20532;-62
2023/03/12 07:57:32;;;;;;;4.88;4.38;;;31.30;99.90;;;;;;5016775;28;20034;-63
2023/03/12 07:59:59;;;;;;;5.18;4.68;;;31.30;99.90;;;;;;5016861;28;20032;-64
2023/03/12 08:02:25;;;;;;;7.57;4.72;;;31.40;99.90;;;;;;5021284;28;20018;-64
2023/03/12 08:04:52;;;;;;;4.43;4.03;;;31.50;99.90;;;;;;5018695;28;20494;-64
2023/03/12 08:07:18;;;;;;;5.18;4.32;;;31.50;99.90;;;;;;5017189;28;20030;-63
2023/03/12 08:09:48;;;;;;;5.78;3.65;;;31.50;99.90;;;;;;5025294;28;20021;-61
2023/03/12 08:12:14;;;;;;;4.72;4.30;;;31.40;99.90;;;;;;5026313;28;20033;-62
2023/03/12 08:14:41;;;;;;;4.57;4.10;;;31.40;99.90;;;;;;5021353;28;20038;-62
2023/03/12 08:17:07;;;;;;;5.20;3.97;;;31.20;99.90;;;;;;5024953;28;20032;-60
2023/03/12 08:19:34;;;;;;;6.72;3.28;;;31.20;99.90;;;;;;5025747;28;20022;-65
2023/03/12 08:22:00;;;;;;;7.53;3.65;;;31.20;99.90;;;;;;5021210;28;20039;-64
2023/03/12 08:24:27;;;;;;;5.18;3.50;;;31.20;99.90;;;;;;5024671;28;20026;-62
2023/03/12 08:26:54;;;;;;;3.70;3.20;;;31.20;99.90;;;;;;5025447;28;20030;-64
2023/03/12 08:29:21;;;;;;;4.10;3.70;;;31.20;99.90;;;;;;5021113;28;20052;-63
2023/03/12 08:31:47;;;;;;;5.45;3.10;;;31.10;99.90;;;;;;5024866;28;20048;-63
2023/03/12 08:34:14;;;;;;;4.78;3.67;;;31.10;99.90;;;;;;5025100;28;20414;-64
2023/03/12 08:36:41;;;;;;;6.55;4.18;;;31.20;99.90;;;;;;5022586;28;20014;-61
2023/03/12 08:39:07;;;;;;;5.78;4.20;;;31.20;99.90;;;;;;5023741;28;20084;-60
2023/03/12 08:41:34;;;;;;;7.90;5.40;;;31.10;99.90;;;;;;5023556;28;20471;-61
2023/03/12 08:44:00;;;;;;;10.70;6.65;;;31.10;99.90;;;;;;5025475;28;20479;-63
2023/03/12 08:46:28;;;;;;;5.07;4.32;;;31.10;99.90;;;;;;5023992;28;20052;-62
2023/03/12 08:48:54;;;;;;;12.20;8.45;;;31.10;99.90;;;;;;5023414;28;20474;-62
2023/03/12 08:51:21;;;;;;;21.60;18.58;;;31.10;99.90;;;;;;5025360;28;20063;-63
2023/03/12 08:53:48;;;;;;;29.60;26.33;;;31.00;99.90;;;;;;5024228;28;20026;-63
2023/03/12 08:56:14;;;;;;;49.08;34.47;;;31.00;99.90;;;;;;5023326;28;20095;-62
2023/03/12 08:58:41;;;;;;;13.77;9.93;;;31.10;99.90;;;;;;5025096;28;20021;-62
2023/03/12 09:01:12;;;;;;;9.75;7.78;;;31.00;99.90;;;;;;5015781;28;20018;-63
2023/03/12 09:03:40;;;;;;;15.02;10.85;;;31.00;99.90;;;;;;5015262;28;20057;-63
2023/03/12 09:06:15;;;;;;;33.15;20.48;;;31.00;99.90;;;;;;5015627;28;20113;-63
2023/03/12 09:08:43;;;;;;;113.32;58.38;;;31.00;99.90;;;;;;5014347;28;20470;-62
2023/03/12 09:11:12;;;;;;;82.75;50.47;;;31.00;99.90;;;;;;5015449;28;20037;-63
2023/03/12 09:13:39;;;;;;;98.10;54.35;;;30.90;99.90;;;;;;5015143;28;20056;-63
2023/03/12 09:16:07;;;;;;;93.80;56.40;;;30.90;99.90;;;;;;5013712;28;20035;-63
2023/03/12 09:18:35;;;;;;;148.80;94.32;;;30.90;99.90;;;;;;5015501;28;20478;-66
2023/03/12 09:21:02;;;;;;;214.55;135.18;;;30.90;99.90;;;;;;5015079;28;20110;-66
2023/03/12 09:23:29;;;;;;;444.00;326.92;;;30.80;99.90;;;;;;5014630;28;20533;-66
2023/03/12 09:25:56;;;;;;;221.35;139.27;;;30.90;99.90;;;;;;5015210;28;20053;-66
2023/03/12 09:28:22;;;;;;;266.75;144.93;;;30.90;99.90;;;;;;5014958;28;20028;-66
2023/03/12 09:30:50;;;;;;;58.78;35.97;;;30.90;99.90;;;;;;5014766;28;20430;-66
2023/03/12 09:33:17;;;;;;;34.30;20.42;;;30.90;99.90;;;;;;5014760;28;20068;-66
2023/03/12 09:35:43;;;;;;;65.30;38.92;;;30.90;99.90;;;;;;5014849;28;20544;-66
2023/03/12 09:38:14;;;;;;;145.70;80.97;;;30.90;99.90;;;;;;5014725;28;20026;-65
2023/03/12 09:40:46;;;;;;;18.85;11.38;;;30.90;99.90;;;;;;5014782;28;20018;-66
2023/03/12 09:43:39;;;;;;;179.95;92.93;;;30.90;99.90;;;;;;5014743;28;20057;-66
2023/03/12 09:46:14;;;;;;;50.85;24.67;;;30.90;99.90;;;;;;5014958;28;20429;-69
2023/03/12 09:48:41;;;;;;;155.82;84.40;;;30.70;99.90;;;;;;5014629;28;20018;-69
2023/03/12 09:51:17;;;;;;;128.48;51.03;;;30.70;99.90;;;;;;5014646;28;20434;-70
2023/03/12 09:54:06;;;;;;;17.70;9.43;;;30.70;99.90;;;;;;5014916;28;20056;-70
2023/03/12 09:56:34;;;;;;;36.10;15.85;;;30.70;99.90;;;;;;5014353;28;20033;-69
2023/03/12 09:59:01;;;;;;;27.95;11.60;;;30.70;99.90;;;;;;5013761;28;20037;-69
2023/03/12 10:01:56;;;;;;;19.67;9.68;;;30.60;99.90;;;;;;5014264;28;20024;-69
2023/03/12 10:04:43;;;;;;;34.03;15.85;;;30.50;99.90;;;;;;5014259;28;20046;-69
2023/03/12 10:07:31;;;;;;;19.75;10.88;;;30.60;99.90;;;;;;5014436;28;20022;-69
2023/03/12 10:10:22;;;;;;;13.88;9.57;;;30.60;99.90;;;;;;5014218;28;20030;-68
2023/03/12 10:12:59;;;;;;;21.80;14.20;;;30.50;99.90;;;;;;5014087;28;20034;-69
2023/03/12 10:15:29;;;;;;;20.50;12.35;;;30.40;99.90;;;;;;5014213;28;20026;-69
2023/03/12 10:18:08;;;;;;;18.95;8.50;;;30.30;99.90;;;;;;5014324;28;20479;-70
2023/03/12 10:20:35;;;;;;;166.98;122.38;;;30.30;99.90;;;;;;5014267;28;20418;-70
2023/03/12 10:23:39;;;;;;;24.50;18.92;;;30.30;99.90;;;;;;5014245;28;20093;-71
2023/03/12 10:26:14;;;;;;;17.88;11.80;;;30.20;99.90;;;;;;5014146;28;20030;-70
2023/03/12 10:28:59;;;;;;;18.42;13.43;;;30.20;99.90;;;;;;5013916;28;20049;-70
2023/03/12 10:31:35;;;;;;;25.17;18.15;;;30.20;99.90;;;;;;5013982;28;20493;-70
2023/03/12 10:34:06;;;;;;;14.93;7.90;;;30.20;99.90;;;;;;5013716;28;20018;-70
2023/03/12 10:36:40;;;;;;;12.23;6.63;;;30.20;99.90;;;;;;5011762;28;20022;-69
2023/03/12 10:39:18;;;;;;;12.52;6.15;;;30.10;99.90;;;;;;5012688;28;20099;-70
2023/03/12 10:41:47;;;;;;;12.23;7.07;;;30.10;99.90;;;;;;5005584;28;20018;-70
2023/03/12 10:44:21;;;;;;;15.68;7.80;;;30.10;99.90;;;;;;4994244;28;20041;-69
2023/03/12 10:47:17;;;;;;;12.45;7.55;;;30.10;99.90;;;;;;4994074;28;20026;-68
2023/03/12 10:49:49;;;;;;;11.07;7.00;;;30.00;99.90;;;;;;4994165;28;20384;-68
2023/03/12 10:52:21;;;;;;;9.98;6.15;;;30.00;99.90;;;;;;5007768;28;20022;-68
2023/03/12 10:54:50;;;;;;;9.65;5.93;;;29.90;99.90;;;;;;5013580;28;20390;-69
2023/03/12 10:57:18;;;;;;;10.00;6.18;;;30.00;99.90;;;;;;5013907;28;20022;-69
2023/03/12 10:59:46;;;;;;;13.15;7.15;;;30.00;99.90;;;;;;5013867;28;20101;-68
2023/03/12 11:02:33;;;;;;;12.55;7.65;;;30.00;99.90;;;;;;5013615;28;20029;-68
2023/03/12 11:05:02;;;;;;;21.60;10.60;;;30.00;99.90;;;;;;5013736;28;20061;-67
2023/03/12 11:07:29;;;;;;;22.05;11.93;;;30.00;99.90;;;;;;5006135;28;20031;-67
2023/03/12 11:10:05;;;;;;;15.80;9.80;;;29.90;99.90;;;;;;4993591;28;20023;-68
2023/03/12 11:12:34;;;;;;;17.30;9.88;;;29.80;99.90;;;;;;4994113;28;20019;-68
2023/03/12 11:15:30;;;;;;;18.50;10.02;;;29.80;99.90;;;;;;4993555;28;20357;-68
2023/03/12 11:18:27;;;;;;;13.70;7.82;;;29.80;99.90;;;;;;5001138;28;20093;-70
2023/03/12 11:20:56;;;;;;;16.58;8.90;;;29.80;99.90;;;;;;5013445;28;20026;-69
2023/03/12 11:23:27;;;;;;;13.40;7.55;;;29.70;99.90;;;;;;5013237;28;20033;-67
2023/03/12 11:26:03;;;;;;;18.83;10.65;;;29.70;99.90;;;;;;5013644;28;20105;-70
2023/03/12 11:28:43;;;;;;;18.23;11.57;;;29.70;99.90;;;;;;5013451;28;20043;-69
2023/03/12 11:31:19;;;;;;;17.35;9.82;;;29.70;99.90;;;;;;5013284;28;20026;-69
2023/03/12 11:33:46;;;;;;;12.18;9.18;;;29.60;99.90;;;;;;5013184;28;20037;-69
2023/03/12 11:36:21;;;;;;;19.40;12.27;;;29.60;99.90;;;;;;5013218;28;20391;-69
2023/03/12 11:39:11;;;;;;;65.85;46.67;;;29.60;99.90;;;;;;5013490;28;20398;-69
2023/03/12 11:42:07;;;;;;;45.47;34.97;;;29.50;99.90;;;;;;5013224;28;20018;-70
2023/03/12 11:44:51;;;;;;;28.45;17.48;;;29.50;99.90;;;;;;5012907;28;20097;-69
2023/03/12 11:47:44;;;;;;;30.13;15.57;;;29.50;99.90;;;;;;5013115;28;20367;-70
2023/03/12 11:50:10;;;;;;;21.58;12.00;;;29.50;99.90;;;;;;5013095;28;20441;-69
2023/03/12 11:53:06;;;;;;;18.08;11.75;;;29.50;99.90;;;;;;5013159;28;20382;-68
2023/03/12 11:55:51;;;;;;;47.90;33.78;;;29.50;99.90;;;;;;5013139;28;20030;-70
2023/03/12 11:58:30;;;;;;;50.03;26.00;;;29.40;99.90;;;;;;5012972;28;20430;-69
2023/03/12 12:01:27;;;;;;;67.40;43.83;;;29.40;99.90;;;;;;5013029;28;20026;-69
2023/03/12 12:04:18;;;;;;;39.90;28.95;;;29.30;99.90;;;;;;5012941;28;20053;-69
2023/03/12 12:06:47;;;;;;;24.45;15.07;;;29.30;99.90;;;;;;5012918;28;20422;-68
2023/03/12 12:09:27;;;;;;;26.38;15.68;;;29.30;99.90;;;;;;5013090;28;20033;-69
2023/03/12 12:12:21;;;;;;;26.23;14.82;;;29.30;99.90;;;;;;5012891;28;20025;-68
2023/03/12 12:15:05;;;;;;;26.30;14.32;;;29.30;99.90;;;;;;5013201;28;20030;-69
2023/03/12 12:17:37;;;;;;;25.00;14.55;;;29.20;99.90;;;;;;5013157;28;20022;-69
2023/03/12 12:20:28;;;;;;;26.70;15.63;;;29.20;99.90;;;;;;5012757;28;20046;-69
2023/03/12 12:23:32;;;;;;;27.40;16.48;;;29.20;99.90;;;;;;5016893;28;20076;-67
2023/03/12 12:26:28;;;;;;;28.45;16.38;;;29.10;99.90;;;;;;5016418;28;20029;-69
2023/03/12 12:29:33;;;;;;;34.35;19.15;;;29.10;99.90;;;;;;4993184;28;20092;-69
2023/03/12 12:32:02;;;;;;;28.10;16.77;;;29.10;99.90;;;;;;4955772;29;20023;-69
2023/03/12 12:34:47;;;;;;;20.52;12.85;;;29.00;99.90;;;;;;5006568;28;20052;-68
2023/03/12 12:37:55;;;;;;;18.25;11.75;;;28.90;99.90;;;;;;5015961;28;20025;-69
2023/03/12 12:40:25;;;;;;;20.90;11.63;;;29.00;99.90;;;;;;5016008;28;20029;-69
2023/03/12 12:43:14;;;;;;;50.22;32.08;;;29.00;99.90;;;;;;5016258;28;20018;-67
2023/03/12 12:45:43;;;;;;;47.88;25.13;;;28.90;99.90;;;;;;5013742;28;20030;-69
2023/03/12 12:48:35;;;;;;;46.92;25.38;;;28.80;99.90;;;;;;5010997;28;20014;-67
2023/03/12 12:51:04;;;;;;;54.75;31.67;;;28.70;99.90;;;;;;5023311;28;20049;-70